sensor_id;sensor_type;location;lat;lon;timestamp;P1;durP1;ratioP1;P2;durP2;ratioP2
44893;SDS011;30625;52.206;21.030;2022-12-18T00:01:04;37.20;;;15.07;;
44893;SDS011;30625;52.206;21.030;2022-12-18T00:03:38;42.45;;;16.00;;
44893;SDS011;30625;52.206;21.030;2022-12-18T00:06:03;43.00;;;17.42;;
44893;SDS011;30625;52.206;21.030;2022-12-18T00:08:29;39.13;;;16.67;;
44893;SDS011;30625;52.206;21.030;2022-12-18T00:10:55;38.97;;;17.52;;
44893;SDS011;30625;52.206;21.030;2022-12-18T00:13:28;39.20;;;16.30;;
44893;SDS011;30625;52.206;21.030;2022-12-18T00:15:53;40.72;;;16.73;;
44893;SDS011;30625;52.206;21.030;2022-12-18T00:18:19;36.10;;;16.08;;
44893;SDS011;30625;52.206;21.030;2022-12-18T00:20:45;38.78;;;16.77;;
44893;SDS011;30625;52.206;21.030;2022-12-18T00:23:10;40.55;;;17.65;;
44893;SDS011;30625;52.206;21.030;2022-12-18T00:25:36;41.35;;;17.30;;
44893;SDS011;30625;52.206;21.030;2022-12-18T00:28:02;40.88;;;17.35;;
44893;SDS011;30625;52.206;21.030;2022-12-18T00:30:29;44.05;;;19.25;;
44893;SDS011;30625;52.206;21.030;2022-12-18T00:32:55;52.40;;;19.58;;
44893;SDS011;30625;52.206;21.030;2022-12-18T00:35:21;46.75;;;19.30;;
44893;SDS011;30625;52.206;21.030;2022-12-18T00:37:47;46.28;;;19.25;;
44893;SDS011;30625;52.206;21.030;2022-12-18T00:40:12;41.80;;;17.50;;
44893;SDS011;30625;52.206;21.030;2022-12-18T00:42:38;41.58;;;17.65;;
44893;SDS011;30625;52.206;21.030;2022-12-18T00:45:21;40.75;;;17.52;;
44893;SDS011;30625;52.206;21.030;2022-12-18T00:47:48;49.88;;;20.23;;
44893;SDS011;30625;52.206;21.030;2022-12-18T00:50:14;42.78;;;18.88;;
44893;SDS011;30625;52.206;21.030;2022-12-18T00:52:39;45.00;;;20.40;;
44893;SDS011;30625;52.206;21.030;2022-12-18T00:55:05;49.58;;;21.40;;
44893;SDS011;30625;52.206;21.030;2022-12-18T00:57:32;44.10;;;19.45;;
44893;SDS011;30625;52.206;21.030;2022-12-18T00:59:58;43.55;;;19.10;;
44893;SDS011;30625;52.206;21.030;2022-12-18T01:02:23;45.13;;;19.35;;
44893;SDS011;30625;52.206;21.030;2022-12-18T01:04:49;41.83;;;18.35;;
44893;SDS011;30625;52.206;21.030;2022-12-18T01:07:15;51.47;;;20.42;;
44893;SDS011;30625;52.206;21.030;2022-12-18T01:09:41;48.33;;;19.80;;
44893;SDS011;30625;52.206;21.030;2022-12-18T01:12:06;43.67;;;22.27;;
44893;SDS011;30625;52.206;21.030;2022-12-18T01:14:32;39.05;;;17.63;;
44893;SDS011;30625;52.206;21.030;2022-12-18T01:16:58;44.42;;;20.33;;
44893;SDS011;30625;52.206;21.030;2022-12-18T01:19:23;40.58;;;17.55;;
44893;SDS011;30625;52.206;21.030;2022-12-18T01:21:49;43.40;;;19.42;;
44893;SDS011;30625;52.206;21.030;2022-12-18T01:24:15;48.85;;;20.67;;
44893;SDS011;30625;52.206;21.030;2022-12-18T01:26:40;45.20;;;19.90;;
44893;SDS011;30625;52.206;21.030;2022-12-18T01:29:06;46.78;;;19.20;;
44893;SDS011;30625;52.206;21.030;2022-12-18T01:31:33;45.75;;;18.95;;
44893;SDS011;30625;52.206;21.030;2022-12-18T01:34:03;44.70;;;19.38;;
44893;SDS011;30625;52.206;21.030;2022-12-18T01:36:30;47.85;;;19.25;;
44893;SDS011;30625;52.206;21.030;2022-12-18T01:39:01;40.00;;;17.45;;
44893;SDS011;30625;52.206;21.030;2022-12-18T01:41:29;44.10;;;18.73;;
44893;SDS011;30625;52.206;21.030;2022-12-18T01:55:32;48.75;;;18.70;;
44893;SDS011;30625;52.206;21.030;2022-12-18T01:58:03;39.97;;;17.58;;
44893;SDS011;30625;52.206;21.030;2022-12-18T02:02:55;46.95;;;17.23;;
44893;SDS011;30625;52.206;21.030;2022-12-18T02:05:27;49.17;;;18.33;;
44893;SDS011;30625;52.206;21.030;2022-12-18T02:08:20;45.90;;;18.30;;
44893;SDS011;30625;52.206;21.030;2022-12-18T02:16:18;40.63;;;17.00;;
44893;SDS011;30625;52.206;21.030;2022-12-18T02:18:50;44.95;;;17.63;;
44893;SDS011;30625;52.206;21.030;2022-12-18T02:27:09;42.45;;;16.45;;
44893;SDS011;30625;52.206;21.030;2022-12-18T02:29:37;42.13;;;16.27;;
44893;SDS011;30625;52.206;21.030;2022-12-18T02:32:12;41.50;;;17.77;;
44893;SDS011;30625;52.206;21.030;2022-12-18T02:34:42;42.20;;;16.67;;
44893;SDS011;30625;52.206;21.030;2022-12-18T02:37:10;36.78;;;15.82;;
44893;SDS011;30625;52.206;21.030;2022-12-18T02:39:41;42.53;;;17.10;;
44893;SDS011;30625;52.206;21.030;2022-12-18T02:42:09;40.63;;;18.13;;
44893;SDS011;30625;52.206;21.030;2022-12-18T02:44:45;45.75;;;17.05;;
44893;SDS011;30625;52.206;21.030;2022-12-18T02:47:13;35.75;;;14.43;;
44893;SDS011;30625;52.206;21.030;2022-12-18T03:00:23;42.97;;;16.95;;
44893;SDS011;30625;52.206;21.030;2022-12-18T03:03:06;43.58;;;16.80;;
44893;SDS011;30625;52.206;21.030;2022-12-18T03:05:41;41.85;;;16.88;;
44893;SDS011;30625;52.206;21.030;2022-12-18T03:08:41;43.60;;;16.98;;
44893;SDS011;30625;52.206;21.030;2022-12-18T03:11:10;43.10;;;15.82;;
44893;SDS011;30625;52.206;21.030;2022-12-18T03:13:39;40.28;;;17.30;;
44893;SDS011;30625;52.206;21.030;2022-12-18T03:16:23;41.78;;;16.00;;
44893;SDS011;30625;52.206;21.030;2022-12-18T03:18:54;39.33;;;16.13;;
44893;SDS011;30625;52.206;21.030;2022-12-18T03:21:26;44.22;;;16.75;;
44893;SDS011;30625;52.206;21.030;2022-12-18T03:23:58;29.45;;;12.50;;
44893;SDS011;30625;52.206;21.030;2022-12-18T03:26:26;40.25;;;17.33;;
44893;SDS011;30625;52.206;21.030;2022-12-18T03:29:04;43.67;;;17.33;;
44893;SDS011;30625;52.206;21.030;2022-12-18T03:31:35;50.38;;;18.00;;
44893;SDS011;30625;52.206;21.030;2022-12-18T03:34:05;43.88;;;17.88;;
44893;SDS011;30625;52.206;21.030;2022-12-18T03:36:36;37.80;;;16.02;;
44893;SDS011;30625;52.206;21.030;2022-12-18T03:39:02;42.83;;;16.50;;
44893;SDS011;30625;52.206;21.030;2022-12-18T03:41:31;42.30;;;16.92;;
44893;SDS011;30625;52.206;21.030;2022-12-18T03:44:31;40.92;;;16.77;;
44893;SDS011;30625;52.206;21.030;2022-12-18T03:47:12;44.58;;;17.27;;
44893;SDS011;30625;52.206;21.030;2022-12-18T03:55:13;37.58;;;15.43;;
44893;SDS011;30625;52.206;21.030;2022-12-18T03:57:40;40.17;;;15.75;;
44893;SDS011;30625;52.206;21.030;2022-12-18T04:00:09;40.15;;;17.00;;
44893;SDS011;30625;52.206;21.030;2022-12-18T04:02:39;42.13;;;16.15;;
44893;SDS011;30625;52.206;21.030;2022-12-18T04:05:09;35.20;;;14.77;;
44893;SDS011;30625;52.206;21.030;2022-12-18T04:07:37;37.47;;;14.80;;
44893;SDS011;30625;52.206;21.030;2022-12-18T04:10:04;39.30;;;16.33;;
44893;SDS011;30625;52.206;21.030;2022-12-18T04:12:32;41.13;;;15.93;;
44893;SDS011;30625;52.206;21.030;2022-12-18T04:14:58;36.25;;;13.38;;
44893;SDS011;30625;52.206;21.030;2022-12-18T04:17:23;37.88;;;17.00;;
44893;SDS011;30625;52.206;21.030;2022-12-18T04:22:15;40.67;;;15.35;;
44893;SDS011;30625;52.206;21.030;2022-12-18T04:24:41;33.72;;;14.60;;
44893;SDS011;30625;52.206;21.030;2022-12-18T04:27:07;40.50;;;14.95;;
44893;SDS011;30625;52.206;21.030;2022-12-18T04:29:32;39.95;;;15.35;;
44893;SDS011;30625;52.206;21.030;2022-12-18T04:31:58;40.50;;;15.55;;
44893;SDS011;30625;52.206;21.030;2022-12-18T04:34:24;43.25;;;15.50;;
44893;SDS011;30625;52.206;21.030;2022-12-18T04:36:50;37.53;;;14.48;;
44893;SDS011;30625;52.206;21.030;2022-12-18T04:39:16;37.00;;;14.60;;
44893;SDS011;30625;52.206;21.030;2022-12-18T04:41:42;37.70;;;15.27;;
44893;SDS011;30625;52.206;21.030;2022-12-18T04:44:07;36.95;;;14.30;;
44893;SDS011;30625;52.206;21.030;2022-12-18T04:46:33;37.50;;;15.13;;
44893;SDS011;30625;52.206;21.030;2022-12-18T04:48:59;41.65;;;15.35;;
44893;SDS011;30625;52.206;21.030;2022-12-18T04:51:24;38.65;;;14.85;;
44893;SDS011;30625;52.206;21.030;2022-12-18T04:53:50;37.20;;;13.75;;
44893;SDS011;30625;52.206;21.030;2022-12-18T04:56:16;36.58;;;14.82;;
44893;SDS011;30625;52.206;21.030;2022-12-18T04:58:42;35.20;;;13.90;;
44893;SDS011;30625;52.206;21.030;2022-12-18T05:01:09;33.88;;;13.40;;
44893;SDS011;30625;52.206;21.030;2022-12-18T05:03:36;32.85;;;13.13;;
44893;SDS011;30625;52.206;21.030;2022-12-18T05:06:02;29.35;;;12.20;;
44893;SDS011;30625;52.206;21.030;2022-12-18T05:08:29;30.98;;;11.60;;
44893;SDS011;30625;52.206;21.030;2022-12-18T05:11:13;33.28;;;12.20;;
44893;SDS011;30625;52.206;21.030;2022-12-18T05:13:41;33.00;;;13.15;;
44893;SDS011;30625;52.206;21.030;2022-12-18T05:16:07;34.00;;;13.25;;
44893;SDS011;30625;52.206;21.030;2022-12-18T05:20:59;32.45;;;12.90;;
44893;SDS011;30625;52.206;21.030;2022-12-18T05:25:51;34.47;;;14.23;;
44893;SDS011;30625;52.206;21.030;2022-12-18T05:28:18;33.10;;;12.35;;
44893;SDS011;30625;52.206;21.030;2022-12-18T05:33:15;32.58;;;12.65;;
44893;SDS011;30625;52.206;21.030;2022-12-18T05:35:41;37.78;;;14.10;;
44893;SDS011;30625;52.206;21.030;2022-12-18T05:38:06;35.20;;;13.95;;
44893;SDS011;30625;52.206;21.030;2022-12-18T05:40:32;38.80;;;14.00;;
44893;SDS011;30625;52.206;21.030;2022-12-18T05:42:58;35.47;;;13.90;;
44893;SDS011;30625;52.206;21.030;2022-12-18T05:45:23;40.65;;;15.55;;
44893;SDS011;30625;52.206;21.030;2022-12-18T05:47:49;42.55;;;15.27;;
44893;SDS011;30625;52.206;21.030;2022-12-18T05:50:15;46.13;;;15.70;;
44893;SDS011;30625;52.206;21.030;2022-12-18T05:52:41;42.35;;;15.10;;
44893;SDS011;30625;52.206;21.030;2022-12-18T05:55:07;42.85;;;15.45;;
44893;SDS011;30625;52.206;21.030;2022-12-18T05:57:32;37.28;;;15.65;;
44893;SDS011;30625;52.206;21.030;2022-12-18T05:59:58;37.15;;;16.10;;
44893;SDS011;30625;52.206;21.030;2022-12-18T06:04:49;46.00;;;16.63;;
44893;SDS011;30625;52.206;21.030;2022-12-18T06:07:15;43.20;;;14.85;;
44893;SDS011;30625;52.206;21.030;2022-12-18T06:09:41;54.25;;;17.63;;
44893;SDS011;30625;52.206;21.030;2022-12-18T06:12:07;44.15;;;16.48;;
44893;SDS011;30625;52.206;21.030;2022-12-18T06:14:32;39.58;;;15.45;;
44893;SDS011;30625;52.206;21.030;2022-12-18T06:16:58;50.95;;;16.77;;
44893;SDS011;30625;52.206;21.030;2022-12-18T06:19:24;51.13;;;15.63;;
44893;SDS011;30625;52.206;21.030;2022-12-18T06:21:49;50.30;;;17.73;;
44893;SDS011;30625;52.206;21.030;2022-12-18T06:24:16;47.13;;;16.02;;
44893;SDS011;30625;52.206;21.030;2022-12-18T06:26:42;49.10;;;18.15;;
44893;SDS011;30625;52.206;21.030;2022-12-18T06:29:07;58.03;;;18.77;;
44893;SDS011;30625;52.206;21.030;2022-12-18T06:31:33;62.20;;;20.52;;
44893;SDS011;30625;52.206;21.030;2022-12-18T06:34:01;53.13;;;18.85;;
44893;SDS011;30625;52.206;21.030;2022-12-18T06:36:28;59.25;;;20.10;;
44893;SDS011;30625;52.206;21.030;2022-12-18T06:38:53;62.28;;;19.52;;
44893;SDS011;30625;52.206;21.030;2022-12-18T06:41:20;48.97;;;18.60;;
44893;SDS011;30625;52.206;21.030;2022-12-18T06:43:46;60.95;;;19.77;;
44893;SDS011;30625;52.206;21.030;2022-12-18T06:46:12;59.72;;;20.38;;
44893;SDS011;30625;52.206;21.030;2022-12-18T06:48:38;61.53;;;20.13;;
44893;SDS011;30625;52.206;21.030;2022-12-18T06:51:04;46.45;;;19.20;;
44893;SDS011;30625;52.206;21.030;2022-12-18T06:53:30;55.33;;;19.63;;
44893;SDS011;30625;52.206;21.030;2022-12-18T06:56:04;53.75;;;17.60;;
44893;SDS011;30625;52.206;21.030;2022-12-18T06:58:31;55.70;;;19.42;;
44893;SDS011;30625;52.206;21.030;2022-12-18T07:01:00;60.63;;;20.67;;
44893;SDS011;30625;52.206;21.030;2022-12-18T07:03:27;61.35;;;19.05;;
44893;SDS011;30625;52.206;21.030;2022-12-18T07:05:52;61.17;;;18.05;;
44893;SDS011;30625;52.206;21.030;2022-12-18T07:08:18;58.03;;;19.20;;
44893;SDS011;30625;52.206;21.030;2022-12-18T07:10:44;54.55;;;19.55;;
44893;SDS011;30625;52.206;21.030;2022-12-18T07:13:09;62.55;;;20.48;;
44893;SDS011;30625;52.206;21.030;2022-12-18T07:15:35;54.03;;;17.13;;
44893;SDS011;30625;52.206;21.030;2022-12-18T07:18:01;58.45;;;20.73;;
44893;SDS011;30625;52.206;21.030;2022-12-18T07:20:26;53.85;;;19.40;;
44893;SDS011;30625;52.206;21.030;2022-12-18T07:22:52;51.25;;;19.70;;
44893;SDS011;30625;52.206;21.030;2022-12-18T07:25:18;59.67;;;19.08;;
44893;SDS011;30625;52.206;21.030;2022-12-18T07:27:44;59.47;;;20.35;;
44893;SDS011;30625;52.206;21.030;2022-12-18T07:30:10;54.03;;;19.02;;
44893;SDS011;30625;52.206;21.030;2022-12-18T07:32:36;54.22;;;18.52;;
44893;SDS011;30625;52.206;21.030;2022-12-18T07:35:01;49.25;;;18.63;;
44893;SDS011;30625;52.206;21.030;2022-12-18T07:37:27;54.95;;;18.00;;
44893;SDS011;30625;52.206;21.030;2022-12-18T07:39:56;50.85;;;18.58;;
44893;SDS011;30625;52.206;21.030;2022-12-18T07:42:21;55.60;;;18.77;;
44893;SDS011;30625;52.206;21.030;2022-12-18T07:44:56;55.28;;;17.67;;
44893;SDS011;30625;52.206;21.030;2022-12-18T07:47:23;53.78;;;19.98;;
44893;SDS011;30625;52.206;21.030;2022-12-18T07:49:49;61.70;;;18.58;;
44893;SDS011;30625;52.206;21.030;2022-12-18T07:52:14;49.38;;;19.00;;
44893;SDS011;30625;52.206;21.030;2022-12-18T07:54:40;46.25;;;16.08;;
44893;SDS011;30625;52.206;21.030;2022-12-18T07:57:06;46.45;;;19.88;;
44893;SDS011;30625;52.206;21.030;2022-12-18T07:59:33;53.95;;;17.77;;
44893;SDS011;30625;52.206;21.030;2022-12-18T08:01:58;51.97;;;19.23;;
44893;SDS011;30625;52.206;21.030;2022-12-18T08:04:25;48.30;;;19.05;;
44893;SDS011;30625;52.206;21.030;2022-12-18T08:06:51;47.60;;;19.60;;
44893;SDS011;30625;52.206;21.030;2022-12-18T08:09:16;56.55;;;18.05;;
44893;SDS011;30625;52.206;21.030;2022-12-18T08:11:42;49.72;;;17.80;;
44893;SDS011;30625;52.206;21.030;2022-12-18T08:16:34;56.47;;;18.00;;
44893;SDS011;30625;52.206;21.030;2022-12-18T08:19:01;53.33;;;18.20;;
44893;SDS011;30625;52.206;21.030;2022-12-18T08:21:28;53.88;;;17.70;;
44893;SDS011;30625;52.206;21.030;2022-12-18T08:23:57;46.58;;;17.20;;
44893;SDS011;30625;52.206;21.030;2022-12-18T08:26:25;46.30;;;16.75;;
44893;SDS011;30625;52.206;21.030;2022-12-18T08:28:56;48.28;;;18.23;;
44893;SDS011;30625;52.206;21.030;2022-12-18T08:31:24;49.15;;;19.67;;
44893;SDS011;30625;52.206;21.030;2022-12-18T08:33:51;48.63;;;17.95;;
44893;SDS011;30625;52.206;21.030;2022-12-18T08:36:17;45.08;;;17.95;;
44893;SDS011;30625;52.206;21.030;2022-12-18T08:38:44;49.15;;;16.52;;
44893;SDS011;30625;52.206;21.030;2022-12-18T08:41:11;48.67;;;18.02;;
44893;SDS011;30625;52.206;21.030;2022-12-18T08:43:39;44.92;;;17.10;;
44893;SDS011;30625;52.206;21.030;2022-12-18T08:46:24;50.47;;;17.50;;
44893;SDS011;30625;52.206;21.030;2022-12-18T08:48:51;50.35;;;18.33;;
44893;SDS011;30625;52.206;21.030;2022-12-18T08:51:18;48.55;;;17.38;;
44893;SDS011;30625;52.206;21.030;2022-12-18T08:56:11;52.50;;;17.20;;
44893;SDS011;30625;52.206;21.030;2022-12-18T08:58:37;50.90;;;18.17;;
44893;SDS011;30625;52.206;21.030;2022-12-18T09:01:03;49.30;;;17.20;;
44893;SDS011;30625;52.206;21.030;2022-12-18T09:03:30;52.25;;;18.42;;
44893;SDS011;30625;52.206;21.030;2022-12-18T09:05:56;47.63;;;18.83;;
44893;SDS011;30625;52.206;21.030;2022-12-18T09:08:22;52.95;;;19.13;;
44893;SDS011;30625;52.206;21.030;2022-12-18T09:10:49;53.22;;;20.38;;
44893;SDS011;30625;52.206;21.030;2022-12-18T09:13:15;59.70;;;20.63;;
44893;SDS011;30625;52.206;21.030;2022-12-18T09:15:45;46.17;;;16.98;;
44893;SDS011;30625;52.206;21.030;2022-12-18T09:18:13;42.90;;;16.63;;
44893;SDS011;30625;52.206;21.030;2022-12-18T09:20:40;50.67;;;18.05;;
44893;SDS011;30625;52.206;21.030;2022-12-18T09:23:06;51.38;;;19.65;;
44893;SDS011;30625;52.206;21.030;2022-12-18T09:25:32;51.08;;;17.90;;
44893;SDS011;30625;52.206;21.030;2022-12-18T09:28:00;47.38;;;18.45;;
44893;SDS011;30625;52.206;21.030;2022-12-18T09:30:46;49.03;;;18.98;;
44893;SDS011;30625;52.206;21.030;2022-12-18T09:33:13;52.70;;;20.00;;
44893;SDS011;30625;52.206;21.030;2022-12-18T09:35:43;52.72;;;19.50;;
44893;SDS011;30625;52.206;21.030;2022-12-18T09:38:11;50.10;;;20.30;;
44893;SDS011;30625;52.206;21.030;2022-12-18T09:40:43;53.45;;;19.75;;
44893;SDS011;30625;52.206;21.030;2022-12-18T09:43:18;48.90;;;20.08;;
44893;SDS011;30625;52.206;21.030;2022-12-18T09:45:51;47.78;;;20.63;;
44893;SDS011;30625;52.206;21.030;2022-12-18T09:48:23;58.00;;;21.52;;
44893;SDS011;30625;52.206;21.030;2022-12-18T09:50:53;55.63;;;21.63;;
44893;SDS011;30625;52.206;21.030;2022-12-18T09:53:28;54.47;;;19.83;;
44893;SDS011;30625;52.206;21.030;2022-12-18T09:55:59;54.53;;;20.23;;
44893;SDS011;30625;52.206;21.030;2022-12-18T10:01:23;57.72;;;21.13;;
44893;SDS011;30625;52.206;21.030;2022-12-18T10:03:50;52.95;;;20.67;;
44893;SDS011;30625;52.206;21.030;2022-12-18T10:06:22;46.80;;;19.65;;
44893;SDS011;30625;52.206;21.030;2022-12-18T10:09:08;57.60;;;22.73;;
44893;SDS011;30625;52.206;21.030;2022-12-18T10:11:48;52.38;;;20.13;;
44893;SDS011;30625;52.206;21.030;2022-12-18T10:14:29;54.38;;;21.65;;
44893;SDS011;30625;52.206;21.030;2022-12-18T10:17:45;57.70;;;22.65;;
44893;SDS011;30625;52.206;21.030;2022-12-18T10:20:28;61.85;;;22.73;;
44893;SDS011;30625;52.206;21.030;2022-12-18T10:25:55;58.05;;;23.77;;
44893;SDS011;30625;52.206;21.030;2022-12-18T10:28:30;64.97;;;24.85;;
44893;SDS011;30625;52.206;21.030;2022-12-18T10:30:57;64.30;;;24.88;;
44893;SDS011;30625;52.206;21.030;2022-12-18T10:33:27;65.28;;;24.38;;
44893;SDS011;30625;52.206;21.030;2022-12-18T10:35:54;63.70;;;22.63;;
44893;SDS011;30625;52.206;21.030;2022-12-18T10:38:23;58.92;;;23.85;;
44893;SDS011;30625;52.206;21.030;2022-12-18T10:40:52;58.42;;;21.95;;
44893;SDS011;30625;52.206;21.030;2022-12-18T10:43:24;60.40;;;23.20;;
44893;SDS011;30625;52.206;21.030;2022-12-18T10:46:05;58.72;;;21.95;;
44893;SDS011;30625;52.206;21.030;2022-12-18T10:51:16;55.83;;;22.80;;
44893;SDS011;30625;52.206;21.030;2022-12-18T10:53:50;58.25;;;22.08;;
44893;SDS011;30625;52.206;21.030;2022-12-18T10:56:31;58.95;;;21.88;;
44893;SDS011;30625;52.206;21.030;2022-12-18T10:59:06;57.78;;;24.30;;
44893;SDS011;30625;52.206;21.030;2022-12-18T11:04:26;65.60;;;22.45;;
44893;SDS011;30625;52.206;21.030;2022-12-18T11:09:30;56.42;;;21.15;;
44893;SDS011;30625;52.206;21.030;2022-12-18T11:12:04;64.93;;;22.30;;
44893;SDS011;30625;52.206;21.030;2022-12-18T11:14:42;62.40;;;23.45;;
44893;SDS011;30625;52.206;21.030;2022-12-18T11:17:19;62.05;;;22.23;;
44893;SDS011;30625;52.206;21.030;2022-12-18T11:19:57;57.58;;;21.35;;
44893;SDS011;30625;52.206;21.030;2022-12-18T11:22:25;58.63;;;22.65;;
44893;SDS011;30625;52.206;21.030;2022-12-18T11:24:57;61.30;;;22.63;;
44893;SDS011;30625;52.206;21.030;2022-12-18T11:27:26;59.72;;;23.45;;
44893;SDS011;30625;52.206;21.030;2022-12-18T11:30:06;57.28;;;22.65;;
44893;SDS011;30625;52.206;21.030;2022-12-18T11:32:46;56.45;;;22.08;;
44893;SDS011;30625;52.206;21.030;2022-12-18T11:38:22;62.92;;;23.52;;
44893;SDS011;30625;52.206;21.030;2022-12-18T11:41:01;68.47;;;24.20;;
44893;SDS011;30625;52.206;21.030;2022-12-18T11:46:37;64.03;;;23.77;;
44893;SDS011;30625;52.206;21.030;2022-12-18T11:49:12;66.90;;;24.30;;
44893;SDS011;30625;52.206;21.030;2022-12-18T11:51:49;58.75;;;22.75;;
44893;SDS011;30625;52.206;21.030;2022-12-18T11:54:18;68.25;;;22.77;;
44893;SDS011;30625;52.206;21.030;2022-12-18T12:07:51;67.32;;;23.42;;
44893;SDS011;30625;52.206;21.030;2022-12-18T12:16:24;61.17;;;23.77;;
44893;SDS011;30625;52.206;21.030;2022-12-18T12:24:39;64.72;;;23.98;;
44893;SDS011;30625;52.206;21.030;2022-12-18T12:30:03;61.35;;;24.65;;
44893;SDS011;30625;52.206;21.030;2022-12-18T12:35:14;56.78;;;23.08;;
44893;SDS011;30625;52.206;21.030;2022-12-18T12:37:56;66.30;;;22.35;;
44893;SDS011;30625;52.206;21.030;2022-12-18T12:40:35;66.63;;;24.95;;
44893;SDS011;30625;52.206;21.030;2022-12-18T12:43:18;61.78;;;22.52;;
44893;SDS011;30625;52.206;21.030;2022-12-18T12:46:06;67.65;;;24.77;;
44893;SDS011;30625;52.206;21.030;2022-12-18T12:51:20;68.97;;;25.38;;
44893;SDS011;30625;52.206;21.030;2022-12-18T12:54:01;61.95;;;22.98;;
44893;SDS011;30625;52.206;21.030;2022-12-18T12:56:52;68.95;;;25.45;;
44893;SDS011;30625;52.206;21.030;2022-12-18T13:05:45;63.58;;;23.98;;
44893;SDS011;30625;52.206;21.030;2022-12-18T13:10:36;59.90;;;23.75;;
44893;SDS011;30625;52.206;21.030;2022-12-18T13:15:46;65.93;;;23.80;;
44893;SDS011;30625;52.206;21.030;2022-12-18T13:18:21;67.47;;;24.83;;
44893;SDS011;30625;52.206;21.030;2022-12-18T13:30:59;63.17;;;23.23;;
44893;SDS011;30625;52.206;21.030;2022-12-18T13:36:03;55.17;;;22.33;;
44893;SDS011;30625;52.206;21.030;2022-12-18T13:38:37;58.10;;;22.38;;
44893;SDS011;30625;52.206;21.030;2022-12-18T13:41:26;57.55;;;22.52;;
44893;SDS011;30625;52.206;21.030;2022-12-18T13:43:52;66.10;;;23.15;;
44893;SDS011;30625;52.206;21.030;2022-12-18T13:51:39;59.13;;;23.17;;
44893;SDS011;30625;52.206;21.030;2022-12-18T13:56:53;60.10;;;22.50;;
44893;SDS011;30625;52.206;21.030;2022-12-18T13:59:25;57.15;;;21.73;;
44893;SDS011;30625;52.206;21.030;2022-12-18T14:01:59;58.70;;;23.58;;
44893;SDS011;30625;52.206;21.030;2022-12-18T14:07:06;63.80;;;23.75;;
44893;SDS011;30625;52.206;21.030;2022-12-18T14:12:03;60.35;;;23.23;;
44893;SDS011;30625;52.206;21.030;2022-12-18T14:17:16;50.45;;;20.42;;
44893;SDS011;30625;52.206;21.030;2022-12-18T14:19:49;57.25;;;22.23;;
44893;SDS011;30625;52.206;21.030;2022-12-18T14:22:20;62.13;;;22.20;;
44893;SDS011;30625;52.206;21.030;2022-12-18T14:30:39;63.08;;;21.80;;
44893;SDS011;30625;52.206;21.030;2022-12-18T14:33:10;59.47;;;23.77;;
44893;SDS011;30625;52.206;21.030;2022-12-18T14:49:03;62.90;;;21.75;;
44893;SDS011;30625;52.206;21.030;2022-12-18T14:51:47;56.47;;;22.02;;
44893;SDS011;30625;52.206;21.030;2022-12-18T14:54:16;53.53;;;20.85;;
44893;SDS011;30625;52.206;21.030;2022-12-18T14:56:55;59.00;;;22.25;;
44893;SDS011;30625;52.206;21.030;2022-12-18T14:59:28;58.78;;;22.58;;
44893;SDS011;30625;52.206;21.030;2022-12-18T15:04:29;59.38;;;23.02;;
44893;SDS011;30625;52.206;21.030;2022-12-18T15:09:44;53.40;;;21.15;;
44893;SDS011;30625;52.206;21.030;2022-12-18T15:12:35;63.58;;;23.05;;
44893;SDS011;30625;52.206;21.030;2022-12-18T15:15:05;59.97;;;21.70;;
44893;SDS011;30625;52.206;21.030;2022-12-18T15:18:14;58.97;;;21.75;;
44893;SDS011;30625;52.206;21.030;2022-12-18T15:21:10;65.43;;;24.00;;
44893;SDS011;30625;52.206;21.030;2022-12-18T15:26:14;65.78;;;24.45;;
44893;SDS011;30625;52.206;21.030;2022-12-18T15:31:22;65.90;;;25.73;;
44893;SDS011;30625;52.206;21.030;2022-12-18T15:36:19;53.22;;;21.23;;
44893;SDS011;30625;52.206;21.030;2022-12-18T15:38:47;53.13;;;20.95;;
44893;SDS011;30625;52.206;21.030;2022-12-18T15:41:14;60.83;;;21.90;;
44893;SDS011;30625;52.206;21.030;2022-12-18T15:43:41;52.15;;;21.13;;
44893;SDS011;30625;52.206;21.030;2022-12-18T15:46:14;53.17;;;20.77;;
44893;SDS011;30625;52.206;21.030;2022-12-18T15:48:42;55.58;;;21.60;;
44893;SDS011;30625;52.206;21.030;2022-12-18T15:51:16;62.38;;;23.27;;
44893;SDS011;30625;52.206;21.030;2022-12-18T15:53:58;58.17;;;23.42;;
44893;SDS011;30625;52.206;21.030;2022-12-18T15:56:26;58.10;;;22.88;;
44893;SDS011;30625;52.206;21.030;2022-12-18T15:59:12;53.55;;;22.35;;
44893;SDS011;30625;52.206;21.030;2022-12-18T16:01:39;60.63;;;22.27;;
44893;SDS011;30625;52.206;21.030;2022-12-18T16:06:31;47.53;;;19.92;;
44893;SDS011;30625;52.206;21.030;2022-12-18T16:08:57;58.78;;;21.35;;
44893;SDS011;30625;52.206;21.030;2022-12-18T16:11:23;57.00;;;20.48;;
44893;SDS011;30625;52.206;21.030;2022-12-18T16:14:11;58.13;;;21.50;;
44893;SDS011;30625;52.206;21.030;2022-12-18T16:16:40;53.40;;;19.63;;
44893;SDS011;30625;52.206;21.030;2022-12-18T16:19:06;47.88;;;18.27;;
44893;SDS011;30625;52.206;21.030;2022-12-18T16:21:32;49.20;;;18.55;;
44893;SDS011;30625;52.206;21.030;2022-12-18T16:24:00;51.10;;;19.50;;
44893;SDS011;30625;52.206;21.030;2022-12-18T16:26:26;45.47;;;17.50;;
44893;SDS011;30625;52.206;21.030;2022-12-18T16:28:52;47.53;;;19.08;;
44893;SDS011;30625;52.206;21.030;2022-12-18T16:31:18;53.00;;;18.85;;
44893;SDS011;30625;52.206;21.030;2022-12-18T16:36:10;46.03;;;19.25;;
44893;SDS011;30625;52.206;21.030;2022-12-18T16:38:35;50.22;;;20.98;;
44893;SDS011;30625;52.206;21.030;2022-12-18T16:41:01;49.95;;;19.63;;
44893;SDS011;30625;52.206;21.030;2022-12-18T16:43:52;44.60;;;17.67;;
44893;SDS011;30625;52.206;21.030;2022-12-18T16:46:18;50.65;;;19.25;;
44893;SDS011;30625;52.206;21.030;2022-12-18T16:48:44;51.13;;;19.38;;
44893;SDS011;30625;52.206;21.030;2022-12-18T16:51:09;48.92;;;19.75;;
44893;SDS011;30625;52.206;21.030;2022-12-18T16:53:35;56.22;;;19.65;;
44893;SDS011;30625;52.206;21.030;2022-12-18T16:56:01;48.13;;;19.52;;
44893;SDS011;30625;52.206;21.030;2022-12-18T16:58:27;59.55;;;20.85;;
44893;SDS011;30625;52.206;21.030;2022-12-18T17:00:52;44.58;;;19.83;;
44893;SDS011;30625;52.206;21.030;2022-12-18T17:03:18;47.05;;;18.65;;
44893;SDS011;30625;52.206;21.030;2022-12-18T17:05:44;52.30;;;19.63;;
44893;SDS011;30625;52.206;21.030;2022-12-18T17:08:10;50.60;;;18.85;;
44893;SDS011;30625;52.206;21.030;2022-12-18T17:10:35;47.40;;;19.10;;
44893;SDS011;30625;52.206;21.030;2022-12-18T17:13:01;51.13;;;21.23;;
44893;SDS011;30625;52.206;21.030;2022-12-18T17:15:27;56.65;;;21.70;;
44893;SDS011;30625;52.206;21.030;2022-12-18T17:17:53;54.10;;;20.60;;
44893;SDS011;30625;52.206;21.030;2022-12-18T17:20:22;52.08;;;21.08;;
44893;SDS011;30625;52.206;21.030;2022-12-18T17:22:48;54.85;;;21.80;;
44893;SDS011;30625;52.206;21.030;2022-12-18T17:25:17;58.72;;;22.52;;
44893;SDS011;30625;52.206;21.030;2022-12-18T17:27:50;55.90;;;21.70;;
44893;SDS011;30625;52.206;21.030;2022-12-18T17:30:24;55.67;;;21.23;;